createdAt,value
2019-05-14T00:01:11.867Z,1030.82
2019-05-14T00:02:12.277Z,1030.77
2019-05-14T00:04:03.842Z,1030.77
2019-05-14T00:05:03.875Z,1030.78
2019-05-14T00:06:56.878Z,1030.78
2019-05-14T00:07:56.907Z,1030.80
2019-05-14T00:09:51.970Z,1030.83
2019-05-14T00:10:52.037Z,1030.81
2019-05-14T00:12:42.946Z,1030.83
2019-05-14T00:13:42.978Z,1030.86
2019-05-14T00:15:35.960Z,1030.83
2019-05-14T00:16:36.022Z,1030.84
2019-05-14T00:18:31.267Z,1030.89
2019-05-14T00:19:29.051Z,1030.87
2019-05-14T00:21:22.038Z,1030.83
2019-05-14T00:22:22.091Z,1030.82
2019-05-14T00:24:15.112Z,1030.84
2019-05-14T00:25:15.130Z,1030.80
2019-05-14T00:27:08.109Z,1030.78
2019-05-14T00:28:08.168Z,1030.83
2019-05-14T00:30:02.489Z,1030.82
2019-05-14T00:31:02.869Z,1030.82
2019-05-14T00:32:54.221Z,1030.76
2019-05-14T00:33:54.244Z,1030.79
2019-05-14T00:35:47.248Z,1030.75
2019-05-14T00:36:47.281Z,1030.73
2019-05-14T00:38:42.044Z,1030.74
2019-05-14T00:39:41.608Z,1030.73
2019-05-14T00:41:33.314Z,1030.72
2019-05-14T00:42:33.361Z,1030.75
2019-05-14T00:44:26.339Z,1030.75
2019-05-14T00:45:26.397Z,1030.75
2019-05-14T00:47:21.531Z,1030.76
2019-05-14T00:48:19.430Z,1030.79
2019-05-14T00:50:12.922Z,1030.75
2019-05-14T00:51:12.977Z,1030.74
2019-05-14T00:53:06.019Z,1030.78
2019-05-14T00:54:06.010Z,1030.80
2019-05-14T00:55:59.014Z,1030.76
2019-05-14T00:57:01.365Z,1030.74
2019-05-14T00:58:52.351Z,1030.73
2019-05-14T00:59:52.325Z,1030.73
2019-05-14T01:01:45.091Z,1030.69
2019-05-14T01:02:45.126Z,1030.67
2019-05-14T01:04:38.105Z,1030.64
2019-05-14T01:05:38.163Z,1030.67
2019-05-14T01:07:31.634Z,1030.60
2019-05-14T01:08:31.942Z,1030.63
2019-05-14T01:10:24.172Z,1030.58
2019-05-14T01:11:24.233Z,1030.59
2019-05-14T01:13:17.225Z,1030.56
2019-05-14T01:14:17.271Z,1030.58
2019-05-14T01:16:11.984Z,1030.59
2019-05-14T01:17:11.266Z,1030.60
2019-05-14T01:19:03.301Z,1030.60
2019-05-14T01:20:03.371Z,1030.64
2019-05-14T01:21:56.351Z,1030.58
2019-05-14T01:22:56.381Z,1030.53
2019-05-14T01:24:49.371Z,1030.48
2019-05-14T01:25:51.436Z,1030.50
2019-05-14T01:27:42.420Z,1030.51
2019-05-14T01:28:42.453Z,1030.48
2019-05-14T01:30:35.430Z,1030.46
2019-05-14T01:31:35.491Z,1030.48
2019-05-14T01:33:28.479Z,1030.46
2019-05-14T01:34:28.523Z,1030.48
2019-05-14T01:36:21.682Z,1030.45
2019-05-14T01:37:21.964Z,1030.35
2019-05-14T01:39:14.570Z,1030.29
2019-05-14T01:40:14.598Z,1030.27
2019-05-14T01:42:07.579Z,1030.24
2019-05-14T01:43:07.636Z,1030.22
2019-05-14T01:45:02.638Z,1030.16
2019-05-14T01:46:01.951Z,1030.18
2019-05-14T01:47:53.680Z,1030.09
2019-05-14T01:48:53.710Z,1030.09
2019-05-14T01:50:48.218Z,1030.05
2019-05-14T01:51:48.242Z,1030.05
2019-05-14T01:53:41.632Z,1030.04
2019-05-14T01:54:42.716Z,1030.07
2019-05-14T01:56:34.272Z,1030.04
2019-05-14T01:57:34.319Z,1030.02
2019-05-14T01:59:27.319Z,1030.07
2019-05-14T02:00:27.352Z,1030.07
2019-05-14T02:02:22.118Z,1030.04
2019-05-14T02:03:21.510Z,1030.04
2019-05-14T02:05:13.399Z,1030.01
2019-05-14T02:06:13.430Z,1030.00
2019-05-14T02:08:06.434Z,1029.95
2019-05-14T02:09:06.465Z,1029.96
2019-05-14T02:11:01.537Z,1030.02
2019-05-14T02:11:59.498Z,1030.05
2019-05-14T02:13:52.479Z,1030.09
2019-05-14T02:14:52.536Z,1030.05
2019-05-14T02:16:45.540Z,1030.04
2019-05-14T02:17:45.566Z,1030.03
2019-05-14T02:19:38.580Z,1030.01
2019-05-14T02:20:38.610Z,1029.98
2019-05-14T02:22:32.067Z,1029.99
2019-05-14T02:23:32.206Z,1029.96
2019-05-14T02:25:24.631Z,1029.98
2019-05-14T02:26:24.688Z,1029.95
2019-05-14T02:28:17.696Z,1029.95
2019-05-14T02:29:17.724Z,1029.92
2019-05-14T02:31:10.697Z,1029.95
2019-05-14T02:32:11.078Z,1029.92
2019-05-14T02:34:03.760Z,1029.96
2019-05-14T02:35:03.799Z,1029.92
2019-05-14T02:37:00.180Z,1029.93
2019-05-14T02:37:59.600Z,1029.89
2019-05-14T02:39:50.376Z,1029.96
2019-05-14T02:40:49.866Z,1029.97
2019-05-14T02:42:42.868Z,1029.98
2019-05-14T02:43:42.897Z,1030.03
2019-05-14T02:45:40.934Z,1030.11
2019-05-14T02:46:35.931Z,1030.07
2019-05-14T02:48:29.485Z,1030.06
2019-05-14T02:49:30.111Z,1030.01
2019-05-14T02:51:21.977Z,1030.03
2019-05-14T02:52:22.007Z,1030.08
2019-05-14T02:54:14.986Z,1030.09
2019-05-14T02:55:15.046Z,1030.08
2019-05-14T02:57:10.280Z,1030.05
2019-05-14T02:58:10.031Z,1030.04
2019-05-14T03:00:01.055Z,1030.06
2019-05-14T03:01:01.114Z,1030.07
2019-05-14T03:02:54.111Z,1030.04
2019-05-14T03:03:54.144Z,1029.99
2019-05-14T03:05:49.545Z,1029.96
2019-05-14T03:06:49.635Z,1029.99
2019-05-14T03:08:40.194Z,1029.94
2019-05-14T03:09:40.574Z,1029.92
2019-05-14T03:11:33.184Z,1029.93
2019-05-14T03:12:33.250Z,1029.92
2019-05-14T03:14:26.273Z,1029.86
2019-05-14T03:15:29.034Z,1029.90
2019-05-14T03:17:20.014Z,1029.88
2019-05-14T03:18:20.002Z,1029.87
2019-05-14T03:20:12.292Z,1029.87
2019-05-14T03:21:12.349Z,1029.88
2019-05-14T03:23:09.912Z,1029.88
2019-05-14T03:24:05.383Z,1029.87
2019-05-14T03:26:00.371Z,1029.90
2019-05-14T03:26:58.857Z,1029.89
2019-05-14T03:28:51.389Z,1029.91
2019-05-14T03:29:51.457Z,1029.88
2019-05-14T03:31:44.457Z,1029.88
2019-05-14T03:32:44.497Z,1029.87
2019-05-14T03:34:42.789Z,1029.79
2019-05-14T03:35:44.480Z,1029.82
2019-05-14T03:37:31.151Z,1029.83
2019-05-14T03:38:30.551Z,1029.82
2019-05-14T03:40:23.531Z,1029.81
2019-05-14T03:41:23.585Z,1029.81
2019-05-14T03:43:19.644Z,1029.83
2019-05-14T03:44:19.730Z,1029.79
2019-05-14T03:46:09.853Z,1029.78
2019-05-14T03:47:10.672Z,1029.80
2019-05-14T03:49:02.645Z,1029.78
2019-05-14T03:50:02.701Z,1029.78
2019-05-14T03:51:55.701Z,1029.79
2019-05-14T03:52:55.728Z,1029.80
2019-05-14T03:54:49.692Z,1029.81
2019-05-14T03:55:50.509Z,1029.79
2019-05-14T03:57:41.777Z,1029.84
2019-05-14T03:58:41.803Z,1029.88
2019-05-14T04:00:34.778Z,1029.85
2019-05-14T04:01:34.844Z,1029.87
2019-05-14T04:03:29.463Z,1029.84
2019-05-14T04:04:29.894Z,1029.77
2019-05-14T04:06:20.854Z,1029.74
2019-05-14T04:07:20.916Z,1029.75
2019-05-14T04:09:13.908Z,1029.72
2019-05-14T04:10:13.943Z,1029.68
2019-05-14T04:12:09.779Z,1029.66
2019-05-14T04:13:09.040Z,1029.65
2019-05-14T04:14:59.978Z,1029.66
2019-05-14T04:16:00.349Z,1029.66
2019-05-14T04:17:52.989Z,1029.63
2019-05-14T04:18:53.041Z,1029.62
2019-05-14T04:20:46.046Z,1029.66
2019-05-14T04:21:48.868Z,1029.58
2019-05-14T04:23:39.853Z,1029.60
2019-05-14T04:24:41.468Z,1029.58
2019-05-14T04:26:51.929Z,1029.57
2019-05-14T04:27:32.154Z,1029.57
2019-05-14T04:29:25.157Z,1029.51
2019-05-14T04:30:25.189Z,1029.54
2019-05-14T04:32:20.030Z,1029.53
2019-05-14T04:33:18.917Z,1029.55
2019-05-14T04:35:11.230Z,1029.55
2019-05-14T04:36:11.254Z,1029.51
2019-05-14T04:38:04.238Z,1029.53
2019-05-14T04:39:04.292Z,1029.52
2019-05-14T04:40:59.836Z,1029.49
2019-05-14T04:42:00.000Z,1029.50
2019-05-14T04:43:50.600Z,1029.51
2019-05-14T04:44:50.882Z,1029.48
2019-05-14T04:46:43.385Z,1029.50
2019-05-14T04:47:43.403Z,1029.52
2019-05-14T04:49:39.545Z,1029.58
2019-05-14T04:50:40.212Z,1029.58
2019-05-14T04:52:29.513Z,1029.60
2019-05-14T04:53:30.811Z,1029.63
2019-05-14T04:55:22.450Z,1029.63
2019-05-14T04:56:22.508Z,1029.61
2019-05-14T04:58:15.522Z,1029.57
2019-05-14T04:59:15.563Z,1029.54
2019-05-14T05:01:09.794Z,1029.53
2019-05-14T05:02:09.705Z,1029.52
2019-05-14T05:04:01.588Z,1029.55
2019-05-14T05:05:01.634Z,1029.57
2019-05-14T05:06:54.611Z,1029.55
2019-05-14T05:07:54.668Z,1029.53
2019-05-14T05:09:50.147Z,1029.57
2019-05-14T05:10:49.486Z,1029.60
2019-05-14T05:12:40.679Z,1029.61
2019-05-14T05:13:40.735Z,1029.64
2019-05-14T05:15:33.735Z,1029.55
2019-05-14T05:16:33.772Z,1029.58
2019-05-14T05:18:29.374Z,1029.60
2019-05-14T05:19:29.005Z,1029.61
2019-05-14T05:21:20.327Z,1029.60
2019-05-14T05:22:20.377Z,1029.61
2019-05-14T05:24:13.330Z,1029.59
2019-05-14T05:25:13.386Z,1029.61
2019-05-14T05:27:08.507Z,1029.57
2019-05-14T05:28:08.681Z,1029.60
2019-05-14T05:29:59.429Z,1029.59
2019-05-14T05:30:59.459Z,1029.60
2019-05-14T05:32:52.438Z,1029.58
2019-05-14T05:33:52.493Z,1029.60
2019-05-14T05:35:45.496Z,1029.58
2019-05-14T05:36:45.532Z,1029.59
2019-05-14T05:38:39.401Z,1029.61
2019-05-14T05:39:38.851Z,1029.55
2019-05-14T05:41:31.571Z,1029.60
2019-05-14T05:42:31.600Z,1029.58
2019-05-14T05:44:24.578Z,1029.63
2019-05-14T05:45:24.639Z,1029.62
2019-05-14T05:47:18.290Z,1029.60
2019-05-14T05:48:18.768Z,1029.64
2019-05-14T05:50:10.658Z,1029.64
2019-05-14T05:51:10.712Z,1029.63
2019-05-14T05:53:03.718Z,1029.63
2019-05-14T05:54:03.748Z,1029.60
2019-05-14T05:55:59.017Z,1029.57
2019-05-14T05:56:58.182Z,1029.55
2019-05-14T05:58:49.760Z,1029.49
2019-05-14T05:59:49.823Z,1029.54
2019-05-14T06:01:46.368Z,1029.48
2019-05-14T06:02:42.857Z,1029.48
2019-05-14T06:04:35.838Z,1029.49
2019-05-14T06:05:38.209Z,1029.44
2019-05-14T06:07:29.017Z,1029.53
2019-05-14T06:08:28.930Z,1029.58
2019-05-14T06:10:21.920Z,1029.54
2019-05-14T06:11:21.973Z,1029.62
2019-05-14T06:13:14.971Z,1029.75
2019-05-14T06:14:15.018Z,1029.74
2019-05-14T06:16:09.487Z,1029.78
2019-05-14T06:17:08.586Z,1029.84
2019-05-14T06:19:01.028Z,1029.87
2019-05-14T06:20:01.087Z,1029.83
2019-05-14T06:21:54.599Z,1029.88
2019-05-14T06:22:54.635Z,1029.81
2019-05-14T06:24:48.568Z,1029.77
2019-05-14T06:25:49.299Z,1029.76
2019-05-14T06:27:40.681Z,1029.84
2019-05-14T06:28:41.255Z,1029.80
2019-05-14T06:30:33.725Z,1029.75
2019-05-14T06:31:33.786Z,1029.78
2019-05-14T06:33:28.702Z,1029.74
2019-05-14T06:34:29.026Z,1029.75
2019-05-14T06:36:19.933Z,1029.75
2019-05-14T06:37:19.899Z,1029.81
2019-05-14T06:39:12.907Z,1029.83
2019-05-14T06:40:12.954Z,1029.87
2019-05-14T06:42:08.635Z,1029.89
2019-05-14T06:43:06.016Z,1029.86
2019-05-14T06:44:59.015Z,1029.86
2019-05-14T06:45:59.084Z,1029.89
2019-05-14T06:47:52.103Z,1029.90
2019-05-14T06:48:52.150Z,1029.91
2019-05-14T06:50:45.145Z,1030.35
2019-05-14T06:51:45.214Z,1030.40
2019-05-14T06:53:39.184Z,1030.19
2019-05-14T06:54:38.815Z,1030.18
2019-05-14T06:56:31.281Z,1030.19
2019-05-14T06:57:31.347Z,1030.15
2019-05-14T06:59:24.359Z,1030.04
2019-05-14T07:00:24.413Z,1030.06
2019-05-14T07:02:19.361Z,1029.97
2019-05-14T07:03:18.046Z,1029.95
2019-05-14T07:05:10.486Z,1030.04
2019-05-14T07:06:10.551Z,1030.04
2019-05-14T07:08:03.567Z,1030.03
2019-05-14T07:09:03.619Z,1029.97
2019-05-14T07:10:59.028Z,1029.98
2019-05-14T07:11:58.462Z,1029.98
2019-05-14T07:13:49.709Z,1029.89
2019-05-14T07:14:49.758Z,1029.98
2019-05-14T07:16:42.797Z,1030.03
2019-05-14T07:17:42.840Z,1030.13
2019-05-14T07:19:38.296Z,1030.14
2019-05-14T07:20:35.910Z,1030.18
2019-05-14T07:22:28.929Z,1030.29
2019-05-14T07:23:29.134Z,1030.27
2019-05-14T07:25:21.985Z,1030.24
2019-05-14T07:26:22.058Z,1030.26
2019-05-14T07:28:15.084Z,1030.27
2019-05-14T07:29:15.125Z,1030.31
2019-05-14T07:31:09.750Z,1030.24
2019-05-14T07:32:08.976Z,1030.26
2019-05-14T07:34:01.208Z,1030.24
2019-05-14T07:35:01.283Z,1030.28
2019-05-14T07:36:54.312Z,1030.27
2019-05-14T07:37:54.359Z,1030.35
2019-05-14T07:39:48.756Z,1030.35
2019-05-14T07:40:49.440Z,1030.38
2019-05-14T07:42:40.472Z,1030.37
2019-05-14T07:43:40.521Z,1030.37
2019-05-14T07:45:33.631Z,1030.31
2019-05-14T07:46:33.602Z,1030.29
2019-05-14T07:48:28.743Z,1030.29
2019-05-14T07:49:28.879Z,1030.30
2019-05-14T07:51:19.725Z,1030.28
2019-05-14T07:52:19.958Z,1030.30
2019-05-14T07:54:12.798Z,1030.27
2019-05-14T07:55:12.855Z,1030.31
2019-05-14T07:57:08.449Z,1030.34
2019-05-14T07:58:08.191Z,1030.29
2019-05-14T07:59:59.042Z,1030.25
2019-05-14T08:00:59.045Z,1030.29
2019-05-14T08:02:52.057Z,1030.32
2019-05-14T08:03:52.132Z,1030.11
2019-05-14T08:05:45.179Z,1030.35
2019-05-14T08:06:45.234Z,1030.35
2019-05-14T08:08:38.749Z,1030.28
2019-05-14T08:09:38.963Z,1030.34
2019-05-14T08:11:31.334Z,1030.33
2019-05-14T08:12:31.409Z,1030.33
2019-05-14T08:14:24.438Z,1030.20
2019-05-14T08:15:24.500Z,1030.15
2019-05-14T08:17:19.038Z,1030.20
2019-05-14T08:18:18.848Z,1030.26
2019-05-14T08:20:10.622Z,1030.21
2019-05-14T08:21:10.681Z,1030.20
2019-05-14T08:23:03.713Z,1030.19
2019-05-14T08:24:03.769Z,1030.25
2019-05-14T08:25:58.714Z,1030.26
2019-05-14T08:26:57.930Z,1030.26
2019-05-14T08:28:49.900Z,1030.32
2019-05-14T08:29:49.958Z,1030.35
2019-05-14T08:31:42.988Z,1029.62
2019-05-14T08:32:43.047Z,1029.62
2019-05-14T08:34:38.741Z,1030.33
2019-05-14T08:35:36.644Z,1030.34
2019-05-14T08:37:29.663Z,1030.21
2019-05-14T08:38:29.743Z,1030.25
2019-05-14T08:40:22.771Z,1030.15
2019-05-14T08:41:22.829Z,1029.97
2019-05-14T08:43:18.294Z,1029.47
2019-05-14T08:44:15.922Z,1029.44
2019-05-14T08:46:08.963Z,1029.31
2019-05-14T08:47:09.755Z,1029.31
2019-05-14T08:49:02.056Z,1029.64
2019-05-14T08:50:02.100Z,1029.60
2019-05-14T08:51:55.113Z,1029.18
2019-05-14T08:52:55.189Z,1029.11
2019-05-14T08:54:50.513Z,1029.18
2019-05-14T08:55:48.907Z,1029.06
2019-05-14T08:57:41.386Z,1029.05
2019-05-14T08:58:41.355Z,1029.05
2019-05-14T09:00:34.382Z,1029.06
2019-05-14T09:01:34.432Z,1029.07
2019-05-14T09:03:28.850Z,1029.06
2019-05-14T09:04:30.310Z,1029.05
2019-05-14T09:06:20.513Z,1029.03
2019-05-14T09:07:20.582Z,1029.26
2019-05-14T09:09:13.604Z,1029.04
2019-05-14T09:10:13.653Z,1029.07
2019-05-14T09:12:12.181Z,1029.42
2019-05-14T09:13:08.623Z,1029.17
2019-05-14T09:14:59.745Z,1029.35
2019-05-14T09:15:59.794Z,1029.40
2019-05-14T09:17:52.797Z,1029.04
2019-05-14T09:18:52.866Z,1029.19
2019-05-14T09:20:45.891Z,1029.08
2019-05-14T09:21:45.945Z,1028.97
2019-05-14T09:23:39.442Z,1028.92
2019-05-14T09:24:39.058Z,1028.94
2019-05-14T09:26:32.041Z,1028.88
2019-05-14T09:27:32.092Z,1028.84
2019-05-14T09:29:26.064Z,1028.88
2019-05-14T09:30:25.232Z,1028.84
2019-05-14T09:32:19.310Z,1028.83
2019-05-14T09:33:19.058Z,1028.87
2019-05-14T09:35:11.772Z,1028.90
2019-05-14T09:36:19.602Z,1028.87
2019-05-14T09:38:04.801Z,1028.92
2019-05-14T09:39:04.885Z,1028.87
2019-05-14T09:41:08.031Z,1028.88
2019-05-14T09:41:58.199Z,1028.85
2019-05-14T09:43:50.925Z,1028.79
2019-05-14T09:44:50.990Z,1028.73
2019-05-14T09:46:44.003Z,1028.84
2019-05-14T09:47:47.527Z,1028.82
2019-05-14T09:49:38.833Z,1028.78
2019-05-14T09:50:38.351Z,1028.82
2019-05-14T09:52:30.122Z,1028.85
2019-05-14T09:53:30.167Z,1028.82
2019-05-14T09:55:23.167Z,1028.82
2019-05-14T09:56:23.225Z,1028.75
2019-05-14T09:58:19.595Z,1028.72
2019-05-14T09:59:18.404Z,1028.71
2019-05-14T10:01:09.300Z,1028.74
2019-05-14T10:02:09.360Z,1028.67
2019-05-14T10:04:02.358Z,1028.63
2019-05-14T10:05:02.407Z,1028.60
2019-05-14T10:06:55.405Z,1028.59
2019-05-14T10:07:55.457Z,1028.57
2019-05-14T10:09:49.181Z,1028.62
2019-05-14T10:10:48.960Z,1028.61
2019-05-14T10:12:52.412Z,1028.64
2019-05-14T10:13:41.568Z,1028.58
2019-05-14T10:15:34.567Z,1028.51
2019-05-14T10:16:34.628Z,1028.52
2019-05-14T10:18:28.496Z,1028.55
2019-05-14T10:19:29.664Z,1028.52
2019-05-14T10:21:20.693Z,1028.45
2019-05-14T10:22:20.742Z,1028.43
2019-05-14T10:24:13.731Z,1028.38
2019-05-14T10:25:13.795Z,1028.37
2019-05-14T10:27:08.896Z,1028.32
2019-05-14T10:28:08.617Z,1028.35
2019-05-14T10:29:59.859Z,1028.24
2019-05-14T10:31:03.565Z,1028.17
2019-05-14T10:32:52.924Z,1028.23
2019-05-14T10:33:52.965Z,1028.20
2019-05-14T10:35:48.173Z,1028.22
2019-05-14T10:36:46.021Z,1028.20
2019-05-14T10:38:39.030Z,1028.32
2019-05-14T10:39:39.381Z,1028.24
2019-05-14T10:41:32.098Z,1028.22
2019-05-14T10:42:32.128Z,1028.15
2019-05-14T10:44:25.122Z,1028.13
2019-05-14T10:45:25.183Z,1028.16
2019-05-14T10:47:18.843Z,1028.08
2019-05-14T10:48:18.648Z,1028.07
2019-05-14T10:50:13.740Z,1028.09
2019-05-14T10:51:11.295Z,1028.10
2019-05-14T10:53:04.296Z,1028.08
2019-05-14T10:54:18.864Z,1028.11
2019-05-14T10:55:58.290Z,1028.03
2019-05-14T10:56:59.230Z,1028.07
2019-05-14T10:58:50.405Z,1028.00
2019-05-14T10:59:50.466Z,1028.00
2019-05-14T11:01:43.477Z,1028.04
2019-05-14T11:02:43.520Z,1028.02
2019-05-14T11:04:38.775Z,1028.06
2019-05-14T11:05:41.283Z,1027.98
2019-05-14T11:07:29.589Z,1027.99
2019-05-14T11:08:29.842Z,1027.96
2019-05-14T11:10:22.645Z,1027.89
2019-05-14T11:11:22.687Z,1027.88
2019-05-14T11:13:15.678Z,1027.92
2019-05-14T11:14:19.003Z,1027.93
2019-05-14T11:16:08.837Z,1027.87
2019-05-14T11:17:11.843Z,1027.85
2019-05-14T11:19:01.785Z,1027.80
2019-05-14T11:20:01.857Z,1027.77
2019-05-14T11:21:54.859Z,1027.74
2019-05-14T11:22:54.906Z,1027.71
2019-05-14T11:24:49.156Z,1027.64
2019-05-14T11:25:48.772Z,1027.63
2019-05-14T11:27:40.970Z,1027.63
2019-05-14T11:28:41.010Z,1027.69
2019-05-14T11:30:34.019Z,1027.57
2019-05-14T11:31:34.446Z,1027.58
2019-05-14T11:33:29.527Z,1027.56
2019-05-14T11:34:28.721Z,1027.56
2019-05-14T11:36:20.105Z,1027.47
2019-05-14T11:37:20.166Z,1027.41
2019-05-14T11:39:13.175Z,1027.52
2019-05-14T11:40:13.232Z,1027.38
2019-05-14T11:42:08.529Z,1027.44
2019-05-14T11:43:08.371Z,1027.42
2019-05-14T11:44:59.279Z,1027.35
2019-05-14T11:45:59.562Z,1027.37
2019-05-14T11:47:52.310Z,1027.26
2019-05-14T11:48:52.374Z,1027.21
2019-05-14T11:50:45.379Z,1027.25
2019-05-14T11:52:00.969Z,1027.23
2019-05-14T11:53:38.693Z,1027.16
2019-05-14T11:54:40.997Z,1027.11
2019-05-14T11:56:31.463Z,1027.16
2019-05-14T11:57:31.530Z,1027.16
2019-05-14T11:59:24.536Z,1027.13
2019-05-14T12:00:26.057Z,1027.17
2019-05-14T12:02:18.942Z,1027.16
2019-05-14T12:03:19.752Z,1027.13
2019-05-14T12:05:10.648Z,1027.12
2019-05-14T12:06:10.684Z,1027.08
2019-05-14T12:08:03.669Z,1027.02
2019-05-14T12:09:03.737Z,1027.03
2019-05-14T12:10:59.011Z,1027.10
2019-05-14T12:11:58.681Z,1027.06
2019-05-14T12:13:49.785Z,1027.15
2019-05-14T12:14:49.858Z,1027.14
2019-05-14T12:16:42.873Z,1027.15
2019-05-14T12:17:42.910Z,1027.20
2019-05-14T12:19:35.899Z,1027.19
2019-05-14T12:20:39.337Z,1027.19
2019-05-14T12:22:28.969Z,1027.18
2019-05-14T12:23:29.801Z,1027.17
2019-05-14T12:25:22.013Z,1027.09
2019-05-14T12:26:22.089Z,1027.06
2019-05-14T12:28:15.094Z,1026.98
2019-05-14T12:29:15.137Z,1026.96
2019-05-14T12:31:09.300Z,1027.02
2019-05-14T12:32:12.623Z,1027.03
2019-05-14T12:34:01.185Z,1026.94
2019-05-14T12:35:01.247Z,1026.92
2019-05-14T12:36:54.255Z,1026.87
2019-05-14T12:37:54.299Z,1026.88
2019-05-14T12:39:47.352Z,1026.86
2019-05-14T12:40:47.352Z,1026.83
2019-05-14T12:42:40.371Z,1026.84
2019-05-14T12:43:43.684Z,1026.83
2019-05-14T12:45:33.397Z,1026.77
2019-05-14T12:46:33.460Z,1026.77
2019-05-14T12:48:29.522Z,1026.76
2019-05-14T12:49:26.514Z,1026.81
2019-05-14T12:51:19.505Z,1026.78
2019-05-14T12:52:25.714Z,1026.74
2019-05-14T12:54:12.586Z,1026.77
2019-05-14T12:55:12.620Z,1026.71
2019-05-14T12:57:05.611Z,1026.77
2019-05-14T12:58:08.117Z,1026.83
2019-05-14T12:59:58.678Z,1026.79
2019-05-14T13:00:59.541Z,1026.74
2019-05-14T13:02:51.730Z,1026.73
2019-05-14T13:03:51.775Z,1026.70
2019-05-14T13:05:44.758Z,1026.68
2019-05-14T13:06:44.820Z,1026.67
2019-05-14T13:08:38.710Z,1026.70
2019-05-14T13:09:38.564Z,1026.64
2019-05-14T13:11:30.870Z,1026.63
2019-05-14T13:12:30.921Z,1026.64
2019-05-14T13:14:23.934Z,1026.63
2019-05-14T13:15:23.971Z,1026.58
2019-05-14T13:17:18.693Z,1026.53
2019-05-14T13:18:19.365Z,1026.52
2019-05-14T13:20:13.720Z,1026.52
2019-05-14T13:21:10.072Z,1026.42
2019-05-14T13:23:03.059Z,1026.39
2019-05-14T13:24:03.123Z,1026.40
2019-05-14T13:25:58.472Z,1026.36
2019-05-14T13:26:58.625Z,1026.48
2019-05-14T13:28:50.924Z,1026.41
2019-05-14T13:29:49.435Z,1026.41
2019-05-14T13:31:42.235Z,1026.34
2019-05-14T13:32:42.287Z,1026.35
2019-05-14T13:34:35.294Z,1026.30
2019-05-14T13:35:35.325Z,1026.27
2019-05-14T13:37:28.782Z,1026.25
2019-05-14T13:38:28.393Z,1026.16
2019-05-14T13:40:21.573Z,1026.11
2019-05-14T13:41:21.439Z,1026.12
2019-05-14T13:43:14.687Z,1026.13
2019-05-14T13:44:23.998Z,1026.14
2019-05-14T13:46:10.493Z,1026.16
2019-05-14T13:47:09.210Z,1026.10
2019-05-14T13:49:00.534Z,1026.09
2019-05-14T13:50:00.593Z,1026.09
2019-05-14T13:51:53.624Z,1025.99
2019-05-14T13:53:07.584Z,1025.96
2019-05-14T13:54:48.146Z,1025.97
2019-05-14T13:55:57.068Z,1025.97
2019-05-14T13:57:41.232Z,1026.02
2019-05-14T13:58:41.257Z,1026.00
2019-05-14T14:00:34.265Z,1025.97
2019-05-14T14:01:34.304Z,1025.98
2019-05-14T14:03:29.179Z,1026.01
2019-05-14T14:04:27.356Z,1025.92
2019-05-14T14:06:20.900Z,1026.00
2019-05-14T14:07:20.425Z,1026.00
2019-05-14T14:09:13.441Z,1025.92
2019-05-14T14:10:13.472Z,1025.89
2019-05-14T14:12:08.237Z,1025.81
2019-05-14T14:13:10.754Z,1025.81
2019-05-14T14:14:59.521Z,1025.76
2019-05-14T14:15:59.569Z,1025.81
2019-05-14T14:17:52.592Z,1025.78
2019-05-14T14:18:52.624Z,1025.80
2019-05-14T14:20:45.609Z,1025.74
2019-05-14T14:21:45.675Z,1025.74
2019-05-14T14:23:39.476Z,1025.75
2019-05-14T14:24:38.821Z,1025.74
2019-05-14T14:26:31.764Z,1025.62
2019-05-14T14:27:31.843Z,1025.60
2019-05-14T14:29:24.786Z,1025.51
2019-05-14T14:30:24.831Z,1025.50
2019-05-14T14:32:18.833Z,1025.50
2019-05-14T14:33:18.529Z,1025.51
2019-05-14T14:35:10.902Z,1025.38
2019-05-14T14:36:10.948Z,1025.41
2019-05-14T14:38:03.965Z,1025.37
2019-05-14T14:39:03.996Z,1025.41
2019-05-14T14:40:58.227Z,1025.44
2019-05-14T14:41:58.500Z,1025.44
2019-05-14T14:43:54.003Z,1025.40
2019-05-14T14:44:50.099Z,1025.40
2019-05-14T14:46:43.086Z,1025.30
2019-05-14T14:47:43.149Z,1025.32
2019-05-14T14:49:36.173Z,1025.24
2019-05-14T14:50:38.784Z,1025.28
2019-05-14T14:52:29.350Z,1025.19
2019-05-14T14:53:42.800Z,1025.29
2019-05-14T14:55:22.261Z,1025.18
2019-05-14T14:56:22.298Z,1025.19
2019-05-14T14:58:15.291Z,1025.13
2019-05-14T14:59:15.349Z,1025.13
2019-05-14T15:01:08.953Z,1025.06
2019-05-14T15:02:10.246Z,1025.13
2019-05-14T15:04:01.399Z,1025.10
2019-05-14T15:05:01.463Z,1025.19
2019-05-14T15:06:54.491Z,1025.17
2019-05-14T15:07:54.515Z,1025.15
2019-05-14T15:09:48.710Z,1025.15
2019-05-14T15:10:48.669Z,1025.17
2019-05-14T15:12:40.669Z,1025.16
2019-05-14T15:13:40.622Z,1025.21
2019-05-14T15:15:33.614Z,1025.22
2019-05-14T15:16:33.673Z,1025.15
2019-05-14T15:18:28.829Z,1025.11
2019-05-14T15:19:29.540Z,1025.16
2019-05-14T15:21:19.714Z,1025.11
2019-05-14T15:22:20.924Z,1025.05
2019-05-14T15:24:15.585Z,1025.01
2019-05-14T15:25:12.827Z,1025.01
2019-05-14T15:27:11.857Z,1024.97
2019-05-14T15:28:05.883Z,1024.94
2019-05-14T15:29:59.425Z,1024.92
2019-05-14T15:30:59.658Z,1024.88
2019-05-14T15:32:51.958Z,1024.94
2019-05-14T15:33:51.984Z,1024.91
2019-05-14T15:35:44.973Z,1024.88
2019-05-14T15:36:45.032Z,1024.91
2019-05-14T15:38:39.753Z,1024.86
2019-05-14T15:39:39.119Z,1024.90
2019-05-14T15:41:31.071Z,1024.94
2019-05-14T15:42:31.133Z,1024.93
2019-05-14T15:44:24.147Z,1024.94
2019-05-14T15:45:24.182Z,1024.91
2019-05-14T15:47:18.982Z,1024.84
2019-05-14T15:48:19.976Z,1024.85
2019-05-14T15:50:10.246Z,1024.83
2019-05-14T15:51:11.419Z,1024.78
2019-05-14T15:53:03.270Z,1024.77
2019-05-14T15:54:21.116Z,1024.80
2019-05-14T15:55:56.345Z,1024.71
2019-05-14T15:56:58.623Z,1024.77
2019-05-14T15:58:49.409Z,1024.75
2019-05-14T15:59:49.444Z,1024.72
2019-05-14T16:01:42.453Z,1024.73
2019-05-14T16:02:42.507Z,1024.72
2019-05-14T16:04:38.543Z,1024.65
2019-05-14T16:05:39.038Z,1024.63
2019-05-14T16:07:29.333Z,1024.68
2019-05-14T16:08:29.608Z,1024.69
2019-05-14T16:10:21.958Z,1024.63
2019-05-14T16:11:21.653Z,1024.59
2019-05-14T16:13:14.640Z,1024.61
2019-05-14T16:14:14.703Z,1024.62
2019-05-14T16:16:10.225Z,1024.60
2019-05-14T16:17:11.299Z,1024.58
2019-05-14T16:19:00.781Z,1024.54
2019-05-14T16:20:00.807Z,1024.60
2019-05-14T16:21:53.813Z,1024.61
2019-05-14T16:22:53.847Z,1024.58
2019-05-14T16:24:56.402Z,1024.53
2019-05-14T16:25:48.317Z,1024.55
2019-05-14T16:27:40.066Z,1024.54
2019-05-14T16:28:39.976Z,1024.58
2019-05-14T16:30:32.966Z,1024.54
2019-05-14T16:31:33.000Z,1024.51
2019-05-14T16:33:28.806Z,1024.46
2019-05-14T16:34:26.046Z,1024.49
2019-05-14T16:36:19.054Z,1024.47
2019-05-14T16:37:19.092Z,1024.52
2019-05-14T16:39:12.090Z,1024.49
2019-05-14T16:40:12.192Z,1024.48
2019-05-14T16:42:05.161Z,1024.46
2019-05-14T16:43:05.201Z,1024.45
2019-05-14T16:44:58.192Z,1024.39
2019-05-14T16:45:59.743Z,1024.42
2019-05-14T16:47:51.276Z,1024.44
2019-05-14T16:48:51.304Z,1024.43
2019-05-14T16:50:44.290Z,1024.44
2019-05-14T16:51:44.354Z,1024.45
2019-05-14T16:53:38.017Z,1024.43
2019-05-14T16:54:39.499Z,1024.41
2019-05-14T16:56:30.415Z,1024.42
2019-05-14T16:57:30.458Z,1024.42
2019-05-14T16:59:23.469Z,1024.43
2019-05-14T17:00:23.506Z,1024.42
2019-05-14T17:02:19.087Z,1024.40
2019-05-14T17:03:19.109Z,1024.43
2019-05-14T17:05:09.542Z,1024.43
2019-05-14T17:06:09.603Z,1024.43
2019-05-14T17:08:02.631Z,1024.35
2019-05-14T17:09:02.652Z,1024.31
2019-05-14T17:10:55.665Z,1024.33
2019-05-14T17:11:55.697Z,1024.33
2019-05-14T17:13:49.089Z,1024.33
2019-05-14T17:14:48.750Z,1024.30
2019-05-14T17:16:41.756Z,1024.32
2019-05-14T17:17:41.798Z,1024.30
2019-05-14T17:19:34.809Z,1024.28
2019-05-14T17:20:34.844Z,1024.33
2019-05-14T17:22:29.481Z,1024.28
2019-05-14T17:23:28.406Z,1024.30
2019-05-14T17:25:27.137Z,1024.30
2019-05-14T17:26:20.942Z,1024.39